Aviation Digital Data Service (ADDS)

Output produced by METARs form (2139 UTC 21 May 2022)
found at http://www.aviationweather.gov/metar/data/
 
EGTE 212120Z VRB03KT CAVOK 12/08 Q1019
EGTE 212050Z 24005KT CAVOK 14/05 Q1020
EGTE 212020Z 21006KT CAVOK 15/08 Q1020
EGTE 211950Z 29004KT 260V320 9999 FEW035 16/10 Q1019
EGTE 211920Z VRB03KT 9999 FEW035 17/10 Q1019
EGTE 211850Z VRB03KT 9999 FEW035 18/10 Q1019
TAF EGTE 211957Z 2121/2203 35004KT 9999 FEW035 
     PROB40 2200/2203 6000